Andover, Illinois
Current Conditions -  °F | °C
As of 10:52 AM on Sunday 21 Dec 2014 (Local Time) from KMLI Reporting Station
Overcast Overcast  
Wind Chill:   Ceiling: 2600
Heat Index:   Visibility: 8mi
Dew Point:   Wind: 10mph
Humidity: 79%   Direction: 150°SSE
Pressure: 30.09"   Gusts: NA
Location:  41.29°N, 90.29°W
Report Text: KMLI 211652Z 15009KT 8SM OVC026 04/01 A3009 RMK AO2 SLP194 T00390006
Loading
Personal Weather Stations






























Interactive Weather Map New forecast layout! Learn more

10-Day Weather Forecast

Advertisements
Track Severe Weather on mobile